sensor_id;sensor_type;location;lat;lon;timestamp;P1;durP1;ratioP1;P2;durP2;ratioP2
65583;SDS011;62116;43.582;1.470;2023-02-24T00:01:15;1.52;;;1.20;;
65583;SDS011;62116;43.582;1.470;2023-02-24T00:03:52;1.70;;;1.30;;
65583;SDS011;62116;43.582;1.470;2023-02-24T00:06:21;1.70;;;1.20;;
65583;SDS011;62116;43.582;1.470;2023-02-24T00:08:47;0.82;;;0.60;;
65583;SDS011;62116;43.582;1.470;2023-02-24T00:11:13;0.50;;;0.40;;
65583;SDS011;62116;43.582;1.470;2023-02-24T00:13:41;0.85;;;0.47;;
65583;SDS011;62116;43.582;1.470;2023-02-24T00:16:14;1.10;;;0.55;;
65583;SDS011;62116;43.582;1.470;2023-02-24T00:18:41;0.50;;;0.40;;
65583;SDS011;62116;43.582;1.470;2023-02-24T00:21:09;1.40;;;0.30;;
65583;SDS011;62116;43.582;1.470;2023-02-24T00:23:37;0.45;;;0.30;;
65583;SDS011;62116;43.582;1.470;2023-02-24T00:26:04;0.25;;;0.22;;
65583;SDS011;62116;43.582;1.470;2023-02-24T00:28:31;0.43;;;0.35;;
65583;SDS011;62116;43.582;1.470;2023-02-24T00:31:06;1.40;;;0.40;;
65583;SDS011;62116;43.582;1.470;2023-02-24T00:33:38;0.63;;;0.30;;
65583;SDS011;62116;43.582;1.470;2023-02-24T00:36:08;0.93;;;0.40;;
65583;SDS011;62116;43.582;1.470;2023-02-24T00:38:35;0.30;;;0.20;;
65583;SDS011;62116;43.582;1.470;2023-02-24T00:41:16;0.30;;;0.30;;
65583;SDS011;62116;43.582;1.470;2023-02-24T00:43:43;0.95;;;0.30;;
65583;SDS011;62116;43.582;1.470;2023-02-24T00:46:17;0.82;;;0.50;;
65583;SDS011;62116;43.582;1.470;2023-02-24T00:48:45;0.45;;;0.40;;
65583;SDS011;62116;43.582;1.470;2023-02-24T00:51:12;0.63;;;0.40;;
65583;SDS011;62116;43.582;1.470;2023-02-24T00:53:41;1.95;;;0.50;;
65583;SDS011;62116;43.582;1.470;2023-02-24T00:56:07;0.82;;;0.40;;
65583;SDS011;62116;43.582;1.470;2023-02-24T00:58:36;0.40;;;0.30;;
65583;SDS011;62116;43.582;1.470;2023-02-24T01:01:02;0.70;;;0.40;;
65583;SDS011;62116;43.582;1.470;2023-02-24T01:03:29;1.13;;;0.50;;
65583;SDS011;62116;43.582;1.470;2023-02-24T01:06:00;0.47;;;0.38;;
65583;SDS011;62116;43.582;1.470;2023-02-24T01:08:27;1.05;;;0.40;;
65583;SDS011;62116;43.582;1.470;2023-02-24T01:10:56;0.77;;;0.35;;
65583;SDS011;62116;43.582;1.470;2023-02-24T01:13:41;0.95;;;0.30;;
65583;SDS011;62116;43.582;1.470;2023-02-24T01:16:07;0.93;;;0.30;;
65583;SDS011;62116;43.582;1.470;2023-02-24T01:18:34;1.08;;;0.30;;
65583;SDS011;62116;43.582;1.470;2023-02-24T01:20:59;0.57;;;0.28;;
65583;SDS011;62116;43.582;1.470;2023-02-24T01:23:25;1.30;;;0.40;;
65583;SDS011;62116;43.582;1.470;2023-02-24T01:25:51;0.80;;;0.32;;
65583;SDS011;62116;43.582;1.470;2023-02-24T01:28:17;0.90;;;0.47;;
65583;SDS011;62116;43.582;1.470;2023-02-24T01:30:43;0.90;;;0.40;;
65583;SDS011;62116;43.582;1.470;2023-02-24T01:33:09;1.40;;;0.52;;
65583;SDS011;62116;43.582;1.470;2023-02-24T01:35:38;1.40;;;0.40;;
65583;SDS011;62116;43.582;1.470;2023-02-24T01:38:04;1.15;;;0.38;;
65583;SDS011;62116;43.582;1.470;2023-02-24T01:40:30;0.93;;;0.35;;
65583;SDS011;62116;43.582;1.470;2023-02-24T01:42:56;0.57;;;0.40;;
65583;SDS011;62116;43.582;1.470;2023-02-24T01:45:23;2.60;;;0.60;;
65583;SDS011;62116;43.582;1.470;2023-02-24T01:47:55;3.03;;;0.52;;
65583;SDS011;62116;43.582;1.470;2023-02-24T01:50:24;0.57;;;0.40;;
65583;SDS011;62116;43.582;1.470;2023-02-24T01:52:53;1.00;;;0.40;;
65583;SDS011;62116;43.582;1.470;2023-02-24T01:55:24;0.75;;;0.40;;
65583;SDS011;62116;43.582;1.470;2023-02-24T01:57:56;1.15;;;0.57;;
65583;SDS011;62116;43.582;1.470;2023-02-24T02:00:24;2.15;;;0.57;;
65583;SDS011;62116;43.582;1.470;2023-02-24T02:03:07;1.05;;;0.60;;
65583;SDS011;62116;43.582;1.470;2023-02-24T02:05:36;0.65;;;0.40;;
65583;SDS011;62116;43.582;1.470;2023-02-24T02:08:03;0.77;;;0.35;;
65583;SDS011;62116;43.582;1.470;2023-02-24T02:10:29;0.75;;;0.50;;
65583;SDS011;62116;43.582;1.470;2023-02-24T02:12:55;1.90;;;0.60;;
65583;SDS011;62116;43.582;1.470;2023-02-24T02:15:21;1.38;;;0.60;;
65583;SDS011;62116;43.582;1.470;2023-02-24T02:23:00;1.63;;;0.60;;
65583;SDS011;62116;43.582;1.470;2023-02-24T02:31:27;0.52;;;0.40;;
65583;SDS011;62116;43.582;1.470;2023-02-24T02:39:23;1.20;;;0.60;;
65583;SDS011;62116;43.582;1.470;2023-02-24T02:47:52;1.42;;;0.70;;
65583;SDS011;62116;43.582;1.470;2023-02-24T02:52:53;1.25;;;0.60;;
65583;SDS011;62116;43.582;1.470;2023-02-24T02:57:55;1.10;;;0.70;;
65583;SDS011;62116;43.582;1.470;2023-02-24T03:00:27;1.58;;;0.80;;
65583;SDS011;62116;43.582;1.470;2023-02-24T03:03:04;1.33;;;0.70;;
65583;SDS011;62116;43.582;1.470;2023-02-24T03:05:36;1.25;;;0.70;;
65583;SDS011;62116;43.582;1.470;2023-02-24T03:08:11;1.20;;;0.65;;
65583;SDS011;62116;43.582;1.470;2023-02-24T03:10:40;1.20;;;0.70;;
65583;SDS011;62116;43.582;1.470;2023-02-24T03:13:08;1.08;;;0.77;;
65583;SDS011;62116;43.582;1.470;2023-02-24T03:15:37;0.85;;;0.68;;
65583;SDS011;62116;43.582;1.470;2023-02-24T03:18:11;1.65;;;0.80;;
65583;SDS011;62116;43.582;1.470;2023-02-24T03:20:49;1.60;;;1.13;;
65583;SDS011;62116;43.582;1.470;2023-02-24T03:23:22;1.88;;;0.80;;
65583;SDS011;62116;43.582;1.470;2023-02-24T03:25:51;1.13;;;0.80;;
65583;SDS011;62116;43.582;1.470;2023-02-24T03:28:21;1.23;;;0.80;;
65583;SDS011;62116;43.582;1.470;2023-02-24T03:31:06;1.75;;;0.80;;
65583;SDS011;62116;43.582;1.470;2023-02-24T03:33:38;1.45;;;0.60;;
65583;SDS011;62116;43.582;1.470;2023-02-24T03:36:09;2.63;;;0.60;;
65583;SDS011;62116;43.582;1.470;2023-02-24T03:38:38;1.30;;;0.70;;
65583;SDS011;62116;43.582;1.470;2023-02-24T03:41:06;0.77;;;0.55;;
65583;SDS011;62116;43.582;1.470;2023-02-24T03:43:35;0.63;;;0.55;;
65583;SDS011;62116;43.582;1.470;2023-02-24T03:46:06;0.75;;;0.50;;
65583;SDS011;62116;43.582;1.470;2023-02-24T03:48:32;0.68;;;0.50;;
65583;SDS011;62116;43.582;1.470;2023-02-24T03:51:02;0.60;;;0.50;;
65583;SDS011;62116;43.582;1.470;2023-02-24T04:01:20;0.80;;;0.60;;
65583;SDS011;62116;43.582;1.470;2023-02-24T04:06:46;0.68;;;0.55;;
65583;SDS011;62116;43.582;1.470;2023-02-24T04:09:25;0.93;;;0.60;;
65583;SDS011;62116;43.582;1.470;2023-02-24T04:12:22;0.50;;;0.50;;
65583;SDS011;62116;43.582;1.470;2023-02-24T04:17:39;0.88;;;0.50;;
65583;SDS011;62116;43.582;1.470;2023-02-24T04:20:11;0.70;;;0.55;;
65583;SDS011;62116;43.582;1.470;2023-02-24T04:22:43;0.60;;;0.50;;
65583;SDS011;62116;43.582;1.470;2023-02-24T04:25:14;0.45;;;0.45;;
65583;SDS011;62116;43.582;1.470;2023-02-24T04:27:48;0.40;;;0.40;;
65583;SDS011;62116;43.582;1.470;2023-02-24T04:30:16;0.60;;;0.45;;
65583;SDS011;62116;43.582;1.470;2023-02-24T04:32:43;0.55;;;0.50;;
65583;SDS011;62116;43.582;1.470;2023-02-24T04:35:11;0.65;;;0.65;;
65583;SDS011;62116;43.582;1.470;2023-02-24T04:37:38;0.50;;;0.50;;
65583;SDS011;62116;43.582;1.470;2023-02-24T04:40:04;0.65;;;0.50;;
65583;SDS011;62116;43.582;1.470;2023-02-24T04:42:37;0.65;;;0.60;;
65583;SDS011;62116;43.582;1.470;2023-02-24T04:45:20;0.98;;;0.60;;
65583;SDS011;62116;43.582;1.470;2023-02-24T04:47:49;1.48;;;0.65;;
65583;SDS011;62116;43.582;1.470;2023-02-24T04:50:17;0.50;;;0.50;;
65583;SDS011;62116;43.582;1.470;2023-02-24T04:52:51;0.82;;;0.60;;
65583;SDS011;62116;43.582;1.470;2023-02-24T04:55:19;1.20;;;0.70;;
65583;SDS011;62116;43.582;1.470;2023-02-24T04:57:47;0.50;;;0.50;;
65583;SDS011;62116;43.582;1.470;2023-02-24T05:00:22;0.50;;;0.50;;
65583;SDS011;62116;43.582;1.470;2023-02-24T05:02:52;0.47;;;0.47;;
65583;SDS011;62116;43.582;1.470;2023-02-24T05:05:20;0.77;;;0.60;;
65583;SDS011;62116;43.582;1.470;2023-02-24T05:07:53;0.73;;;0.63;;
65583;SDS011;62116;43.582;1.470;2023-02-24T05:10:20;0.70;;;0.70;;
65583;SDS011;62116;43.582;1.470;2023-02-24T05:12:52;0.90;;;0.63;;
65583;SDS011;62116;43.582;1.470;2023-02-24T05:15:18;0.70;;;0.70;;
65583;SDS011;62116;43.582;1.470;2023-02-24T05:17:43;1.63;;;0.80;;
65583;SDS011;62116;43.582;1.470;2023-02-24T05:20:09;0.90;;;0.77;;
65583;SDS011;62116;43.582;1.470;2023-02-24T05:22:53;1.40;;;0.80;;
65583;SDS011;62116;43.582;1.470;2023-02-24T05:25:19;1.30;;;1.00;;
65583;SDS011;62116;43.582;1.470;2023-02-24T05:27:45;1.08;;;0.90;;
65583;SDS011;62116;43.582;1.470;2023-02-24T05:30:11;0.90;;;0.80;;
65583;SDS011;62116;43.582;1.470;2023-02-24T05:32:38;0.90;;;0.80;;
65583;SDS011;62116;43.582;1.470;2023-02-24T05:35:04;1.13;;;0.90;;
65583;SDS011;62116;43.582;1.470;2023-02-24T05:37:30;1.10;;;1.00;;
65583;SDS011;62116;43.582;1.470;2023-02-24T05:39:58;1.33;;;0.95;;
65583;SDS011;62116;43.582;1.470;2023-02-24T05:42:24;1.20;;;1.00;;
65583;SDS011;62116;43.582;1.470;2023-02-24T05:44:51;1.90;;;1.05;;
65583;SDS011;62116;43.582;1.470;2023-02-24T05:47:17;1.83;;;1.30;;
65583;SDS011;62116;43.582;1.470;2023-02-24T05:49:44;1.70;;;1.20;;
65583;SDS011;62116;43.582;1.470;2023-02-24T05:52:12;2.35;;;1.08;;
65583;SDS011;62116;43.582;1.470;2023-02-24T05:54:41;1.38;;;1.10;;
65583;SDS011;62116;43.582;1.470;2023-02-24T05:57:10;1.40;;;1.13;;
65583;SDS011;62116;43.582;1.470;2023-02-24T05:59:38;2.00;;;1.30;;
65583;SDS011;62116;43.582;1.470;2023-02-24T06:02:06;1.52;;;1.20;;
65583;SDS011;62116;43.582;1.470;2023-02-24T06:04:36;1.52;;;1.10;;
65583;SDS011;62116;43.582;1.470;2023-02-24T06:07:09;1.77;;;1.20;;
65583;SDS011;62116;43.582;1.470;2023-02-24T06:09:43;1.73;;;1.25;;
65583;SDS011;62116;43.582;1.470;2023-02-24T06:12:09;1.52;;;1.10;;
65583;SDS011;62116;43.582;1.470;2023-02-24T06:14:35;2.20;;;1.30;;
65583;SDS011;62116;43.582;1.470;2023-02-24T06:17:01;1.80;;;1.30;;
65583;SDS011;62116;43.582;1.470;2023-02-24T06:19:26;2.00;;;1.40;;
65583;SDS011;62116;43.582;1.470;2023-02-24T06:21:56;2.58;;;1.38;;
65583;SDS011;62116;43.582;1.470;2023-02-24T06:24:26;3.30;;;1.30;;
65583;SDS011;62116;43.582;1.470;2023-02-24T06:26:53;1.35;;;1.25;;
65583;SDS011;62116;43.582;1.470;2023-02-24T06:29:26;16.13;;;5.32;;
65583;SDS011;62116;43.582;1.470;2023-02-24T06:31:53;20.23;;;6.75;;
65583;SDS011;62116;43.582;1.470;2023-02-24T06:34:21;5.50;;;2.47;;
65583;SDS011;62116;43.582;1.470;2023-02-24T06:36:48;5.55;;;2.67;;
65583;SDS011;62116;43.582;1.470;2023-02-24T06:39:14;3.95;;;2.30;;
65583;SDS011;62116;43.582;1.470;2023-02-24T06:41:40;2.00;;;1.60;;
65583;SDS011;62116;43.582;1.470;2023-02-24T06:44:06;2.08;;;1.70;;
65583;SDS011;62116;43.582;1.470;2023-02-24T06:46:36;2.28;;;1.60;;
65583;SDS011;62116;43.582;1.470;2023-02-24T06:49:02;2.35;;;1.52;;
65583;SDS011;62116;43.582;1.470;2023-02-24T06:51:27;2.35;;;1.52;;
65583;SDS011;62116;43.582;1.470;2023-02-24T06:53:54;3.30;;;1.90;;
65583;SDS011;62116;43.582;1.470;2023-02-24T06:56:21;2.35;;;1.55;;
65583;SDS011;62116;43.582;1.470;2023-02-24T06:58:47;2.47;;;1.65;;
65583;SDS011;62116;43.582;1.470;2023-02-24T07:01:17;2.97;;;1.70;;
65583;SDS011;62116;43.582;1.470;2023-02-24T07:03:54;2.05;;;1.40;;
65583;SDS011;62116;43.582;1.470;2023-02-24T07:06:32;1.92;;;1.30;;
65583;SDS011;62116;43.582;1.470;2023-02-24T07:08:59;3.40;;;1.60;;
65583;SDS011;62116;43.582;1.470;2023-02-24T07:11:29;3.03;;;1.73;;
65583;SDS011;62116;43.582;1.470;2023-02-24T07:13:56;3.17;;;1.85;;
65583;SDS011;62116;43.582;1.470;2023-02-24T07:16:22;3.38;;;2.20;;
65583;SDS011;62116;43.582;1.470;2023-02-24T07:18:54;3.42;;;1.95;;
65583;SDS011;62116;43.582;1.470;2023-02-24T07:21:22;3.10;;;1.92;;
65583;SDS011;62116;43.582;1.470;2023-02-24T07:23:49;3.22;;;2.13;;
65583;SDS011;62116;43.582;1.470;2023-02-24T07:26:20;5.00;;;2.17;;
65583;SDS011;62116;43.582;1.470;2023-02-24T07:28:48;3.70;;;1.88;;
65583;SDS011;62116;43.582;1.470;2023-02-24T07:31:16;2.28;;;1.60;;
65583;SDS011;62116;43.582;1.470;2023-02-24T07:33:44;2.57;;;1.70;;
65583;SDS011;62116;43.582;1.470;2023-02-24T07:36:19;3.15;;;1.60;;
65583;SDS011;62116;43.582;1.470;2023-02-24T07:38:48;2.03;;;1.50;;
65583;SDS011;62116;43.582;1.470;2023-02-24T07:41:22;3.75;;;1.85;;
65583;SDS011;62116;43.582;1.470;2023-02-24T07:43:50;3.65;;;1.80;;
65583;SDS011;62116;43.582;1.470;2023-02-24T07:46:21;3.20;;;1.35;;
65583;SDS011;62116;43.582;1.470;2023-02-24T07:48:48;2.70;;;1.70;;
65583;SDS011;62116;43.582;1.470;2023-02-24T07:51:18;2.45;;;1.50;;
65583;SDS011;62116;43.582;1.470;2023-02-24T07:53:50;3.17;;;1.80;;
65583;SDS011;62116;43.582;1.470;2023-02-24T07:56:17;2.60;;;1.50;;
65583;SDS011;62116;43.582;1.470;2023-02-24T07:58:47;3.28;;;1.40;;
65583;SDS011;62116;43.582;1.470;2023-02-24T08:01:17;1.92;;;1.20;;
65583;SDS011;62116;43.582;1.470;2023-02-24T08:03:51;5.05;;;1.45;;
65583;SDS011;62116;43.582;1.470;2023-02-24T08:06:25;5.00;;;1.60;;
65583;SDS011;62116;43.582;1.470;2023-02-24T08:09:08;3.47;;;1.50;;
65583;SDS011;62116;43.582;1.470;2023-02-24T08:14:13;1.73;;;1.40;;
65583;SDS011;62116;43.582;1.470;2023-02-24T08:16:42;2.83;;;1.40;;
65583;SDS011;62116;43.582;1.470;2023-02-24T08:19:11;3.15;;;1.80;;
65583;SDS011;62116;43.582;1.470;2023-02-24T08:21:41;3.25;;;1.48;;
65583;SDS011;62116;43.582;1.470;2023-02-24T08:24:14;2.50;;;1.55;;
65583;SDS011;62116;43.582;1.470;2023-02-24T08:26:42;2.22;;;1.20;;
65583;SDS011;62116;43.582;1.470;2023-02-24T08:29:09;2.28;;;1.40;;
65583;SDS011;62116;43.582;1.470;2023-02-24T08:31:35;3.97;;;1.35;;
65583;SDS011;62116;43.582;1.470;2023-02-24T08:34:00;2.17;;;1.40;;
65583;SDS011;62116;43.582;1.470;2023-02-24T08:36:26;2.38;;;1.70;;
65583;SDS011;62116;43.582;1.470;2023-02-24T08:38:51;2.55;;;1.63;;
65583;SDS011;62116;43.582;1.470;2023-02-24T08:41:17;2.20;;;1.70;;
65583;SDS011;62116;43.582;1.470;2023-02-24T08:43:50;3.28;;;1.50;;
65583;SDS011;62116;43.582;1.470;2023-02-24T08:46:20;2.72;;;1.70;;
65583;SDS011;62116;43.582;1.470;2023-02-24T08:54:05;5.20;;;1.65;;
65583;SDS011;62116;43.582;1.470;2023-02-24T08:56:35;11.15;;;1.85;;
65583;SDS011;62116;43.582;1.470;2023-02-24T08:59:07;2.50;;;1.55;;
65583;SDS011;62116;43.582;1.470;2023-02-24T09:01:53;2.67;;;1.70;;
65583;SDS011;62116;43.582;1.470;2023-02-24T09:04:38;5.15;;;1.50;;
65583;SDS011;62116;43.582;1.470;2023-02-24T09:07:05;2.70;;;1.40;;
65583;SDS011;62116;43.582;1.470;2023-02-24T09:09:39;4.13;;;1.50;;
65583;SDS011;62116;43.582;1.470;2023-02-24T09:12:06;3.83;;;1.40;;
65583;SDS011;62116;43.582;1.470;2023-02-24T09:14:33;3.33;;;1.40;;
65583;SDS011;62116;43.582;1.470;2023-02-24T09:17:01;6.43;;;1.48;;
65583;SDS011;62116;43.582;1.470;2023-02-24T09:22:12;3.47;;;1.67;;
65583;SDS011;62116;43.582;1.470;2023-02-24T09:25:18;3.15;;;1.40;;
65583;SDS011;62116;43.582;1.470;2023-02-24T09:27:51;2.63;;;1.40;;
65583;SDS011;62116;43.582;1.470;2023-02-24T09:30:32;2.15;;;1.30;;
65583;SDS011;62116;43.582;1.470;2023-02-24T09:35:45;1.67;;;1.10;;
65583;SDS011;62116;43.582;1.470;2023-02-24T09:38:15;2.55;;;1.20;;
65583;SDS011;62116;43.582;1.470;2023-02-24T09:43:22;1.25;;;0.90;;
65583;SDS011;62116;43.582;1.470;2023-02-24T09:48:30;3.05;;;1.00;;
65583;SDS011;62116;43.582;1.470;2023-02-24T09:51:08;2.83;;;1.00;;
65583;SDS011;62116;43.582;1.470;2023-02-24T09:53:45;1.73;;;1.13;;
65583;SDS011;62116;43.582;1.470;2023-02-24T09:56:26;1.77;;;1.10;;
65583;SDS011;62116;43.582;1.470;2023-02-24T10:01:38;1.65;;;0.90;;
65583;SDS011;62116;43.582;1.470;2023-02-24T10:04:41;2.63;;;1.02;;
65583;SDS011;62116;43.582;1.470;2023-02-24T10:07:14;1.27;;;0.80;;
65583;SDS011;62116;43.582;1.470;2023-02-24T10:14:53;1.20;;;0.68;;
65583;SDS011;62116;43.582;1.470;2023-02-24T10:17:51;1.48;;;0.73;;
65583;SDS011;62116;43.582;1.470;2023-02-24T10:22:57;1.83;;;0.60;;
65583;SDS011;62116;43.582;1.470;2023-02-24T10:25:38;0.65;;;0.60;;
65583;SDS011;62116;43.582;1.470;2023-02-24T10:31:45;1.67;;;0.80;;
65583;SDS011;62116;43.582;1.470;2023-02-24T10:34:13;1.33;;;0.77;;
65583;SDS011;62116;43.582;1.470;2023-02-24T10:36:50;1.27;;;0.70;;
65583;SDS011;62116;43.582;1.470;2023-02-24T10:39:18;2.47;;;0.70;;
65583;SDS011;62116;43.582;1.470;2023-02-24T10:41:58;1.77;;;0.80;;
65583;SDS011;62116;43.582;1.470;2023-02-24T10:44:44;1.50;;;0.77;;
65583;SDS011;62116;43.582;1.470;2023-02-24T10:47:17;1.90;;;0.80;;
65583;SDS011;62116;43.582;1.470;2023-02-24T10:49:57;2.80;;;0.88;;
65583;SDS011;62116;43.582;1.470;2023-02-24T10:52:24;2.85;;;0.80;;
65583;SDS011;62116;43.582;1.470;2023-02-24T10:55:37;1.75;;;0.68;;
65583;SDS011;62116;43.582;1.470;2023-02-24T11:00:56;1.85;;;0.80;;
65583;SDS011;62116;43.582;1.470;2023-02-24T11:03:52;1.17;;;0.70;;
65583;SDS011;62116;43.582;1.470;2023-02-24T11:06:29;0.85;;;0.68;;
65583;SDS011;62116;43.582;1.470;2023-02-24T11:09:14;0.98;;;0.70;;
65583;SDS011;62116;43.582;1.470;2023-02-24T11:12:13;2.95;;;0.82;;
65583;SDS011;62116;43.582;1.470;2023-02-24T11:15:06;1.52;;;0.82;;
65583;SDS011;62116;43.582;1.470;2023-02-24T11:17:58;1.70;;;0.75;;
65583;SDS011;62116;43.582;1.470;2023-02-24T11:20:44;1.90;;;0.90;;
65583;SDS011;62116;43.582;1.470;2023-02-24T11:23:13;2.15;;;0.70;;
65583;SDS011;62116;43.582;1.470;2023-02-24T11:25:42;2.63;;;0.60;;
65583;SDS011;62116;43.582;1.470;2023-02-24T11:33:50;2.42;;;0.70;;
65583;SDS011;62116;43.582;1.470;2023-02-24T11:36:29;2.10;;;0.70;;
65583;SDS011;62116;43.582;1.470;2023-02-24T11:39:11;1.42;;;0.75;;
65583;SDS011;62116;43.582;1.470;2023-02-24T11:41:48;0.93;;;0.60;;
65583;SDS011;62116;43.582;1.470;2023-02-24T11:46:56;2.10;;;0.82;;
65583;SDS011;62116;43.582;1.470;2023-02-24T11:52:16;2.42;;;0.80;;
65583;SDS011;62116;43.582;1.470;2023-02-24T11:54:51;2.65;;;0.80;;
65583;SDS011;62116;43.582;1.470;2023-02-24T11:57:20;2.25;;;0.60;;
65583;SDS011;62116;43.582;1.470;2023-02-24T12:00:14;2.80;;;0.90;;
65583;SDS011;62116;43.582;1.470;2023-02-24T12:05:26;1.25;;;0.80;;
65583;SDS011;62116;43.582;1.470;2023-02-24T12:10:50;2.22;;;0.80;;
65583;SDS011;62116;43.582;1.470;2023-02-24T12:16:29;1.92;;;0.82;;
65583;SDS011;62116;43.582;1.470;2023-02-24T12:19:02;2.72;;;1.00;;
65583;SDS011;62116;43.582;1.470;2023-02-24T12:21:35;4.28;;;0.90;;
65583;SDS011;62116;43.582;1.470;2023-02-24T12:24:03;5.68;;;0.80;;
65583;SDS011;62116;43.582;1.470;2023-02-24T12:27:09;4.97;;;0.90;;
65583;SDS011;62116;43.582;1.470;2023-02-24T12:42:59;2.97;;;0.90;;
65583;SDS011;62116;43.582;1.470;2023-02-24T12:45:34;2.67;;;0.85;;
65583;SDS011;62116;43.582;1.470;2023-02-24T12:53:26;2.40;;;0.98;;
65583;SDS011;62116;43.582;1.470;2023-02-24T12:56:36;3.85;;;0.98;;
65583;SDS011;62116;43.582;1.470;2023-02-24T12:58:57;4.47;;;0.88;;
65583;SDS011;62116;43.582;1.470;2023-02-24T13:01:47;1.77;;;0.82;;
65583;SDS011;62116;43.582;1.470;2023-02-24T13:07:16;1.00;;;0.70;;
65583;SDS011;62116;43.582;1.470;2023-02-24T13:16:04;1.63;;;0.75;;
65583;SDS011;62116;43.582;1.470;2023-02-24T13:18:30;3.00;;;0.70;;
65583;SDS011;62116;43.582;1.470;2023-02-24T13:21:06;3.25;;;0.73;;
65583;SDS011;62116;43.582;1.470;2023-02-24T13:23:57;0.95;;;0.70;;
65583;SDS011;62116;43.582;1.470;2023-02-24T13:26:25;1.90;;;0.70;;
65583;SDS011;62116;43.582;1.470;2023-02-24T13:29:12;0.93;;;0.57;;
65583;SDS011;62116;43.582;1.470;2023-02-24T13:31:46;1.73;;;0.70;;
65583;SDS011;62116;43.582;1.470;2023-02-24T13:36:57;1.08;;;0.70;;
65583;SDS011;62116;43.582;1.470;2023-02-24T13:39:23;1.83;;;0.80;;
65583;SDS011;62116;43.582;1.470;2023-02-24T13:42:00;1.50;;;0.90;;
65583;SDS011;62116;43.582;1.470;2023-02-24T13:45:04;2.25;;;0.75;;
65583;SDS011;62116;43.582;1.470;2023-02-24T13:53:28;2.40;;;0.90;;
65583;SDS011;62116;43.582;1.470;2023-02-24T14:01:58;4.05;;;0.80;;
65583;SDS011;62116;43.582;1.470;2023-02-24T14:04:27;1.58;;;0.90;;
65583;SDS011;62116;43.582;1.470;2023-02-24T14:06:56;1.58;;;0.80;;
65583;SDS011;62116;43.582;1.470;2023-02-24T14:09:38;1.60;;;0.80;;
65583;SDS011;62116;43.582;1.470;2023-02-24T14:12:12;1.75;;;0.70;;
65583;SDS011;62116;43.582;1.470;2023-02-24T14:14:42;2.08;;;0.90;;
65583;SDS011;62116;43.582;1.470;2023-02-24T14:19:52;1.55;;;0.80;;
65583;SDS011;62116;43.582;1.470;2023-02-24T14:22:46;1.52;;;0.82;;
65583;SDS011;62116;43.582;1.470;2023-02-24T14:25:14;1.75;;;0.70;;
65583;SDS011;62116;43.582;1.470;2023-02-24T14:27:41;1.48;;;1.00;;
65583;SDS011;62116;43.582;1.470;2023-02-24T14:32:48;1.65;;;0.90;;
65583;SDS011;62116;43.582;1.470;2023-02-24T14:35:18;1.25;;;0.90;;
65583;SDS011;62116;43.582;1.470;2023-02-24T14:37:56;1.80;;;0.93;;
65583;SDS011;62116;43.582;1.470;2023-02-24T14:40:22;2.20;;;1.10;;
65583;SDS011;62116;43.582;1.470;2023-02-24T14:42:49;2.47;;;0.82;;
65583;SDS011;62116;43.582;1.470;2023-02-24T14:45:21;1.85;;;0.90;;
65583;SDS011;62116;43.582;1.470;2023-02-24T14:47:52;3.40;;;1.00;;
65583;SDS011;62116;43.582;1.470;2023-02-24T14:50:19;2.25;;;0.90;;
65583;SDS011;62116;43.582;1.470;2023-02-24T14:52:57;2.70;;;0.80;;
65583;SDS011;62116;43.582;1.470;2023-02-24T14:55:34;1.55;;;0.90;;
65583;SDS011;62116;43.582;1.470;2023-02-24T15:01:04;2.35;;;0.80;;
65583;SDS011;62116;43.582;1.470;2023-02-24T15:03:59;1.33;;;0.80;;
65583;SDS011;62116;43.582;1.470;2023-02-24T15:06:34;2.38;;;0.80;;
65583;SDS011;62116;43.582;1.470;2023-02-24T15:09:15;1.83;;;0.85;;
65583;SDS011;62116;43.582;1.470;2023-02-24T15:11:45;1.55;;;0.77;;
65583;SDS011;62116;43.582;1.470;2023-02-24T15:14:18;1.63;;;0.80;;
65583;SDS011;62116;43.582;1.470;2023-02-24T15:16:46;2.08;;;1.00;;
65583;SDS011;62116;43.582;1.470;2023-02-24T15:19:32;1.67;;;0.80;;
65583;SDS011;62116;43.582;1.470;2023-02-24T15:22:24;1.92;;;0.80;;
65583;SDS011;62116;43.582;1.470;2023-02-24T15:24:49;4.97;;;1.00;;
65583;SDS011;62116;43.582;1.470;2023-02-24T15:29:42;2.75;;;0.90;;
65583;SDS011;62116;43.582;1.470;2023-02-24T15:32:16;2.08;;;0.90;;
65583;SDS011;62116;43.582;1.470;2023-02-24T15:34:45;2.13;;;0.88;;
65583;SDS011;62116;43.582;1.470;2023-02-24T15:37:15;1.05;;;0.70;;
65583;SDS011;62116;43.582;1.470;2023-02-24T15:39:46;1.10;;;0.70;;
65583;SDS011;62116;43.582;1.470;2023-02-24T15:42:23;1.60;;;0.90;;
65583;SDS011;62116;43.582;1.470;2023-02-24T15:44:56;1.65;;;1.02;;
65583;SDS011;62116;43.582;1.470;2023-02-24T15:49:48;1.58;;;1.00;;
65583;SDS011;62116;43.582;1.470;2023-02-24T15:52:14;2.38;;;1.02;;
65583;SDS011;62116;43.582;1.470;2023-02-24T15:54:44;2.33;;;1.20;;
65583;SDS011;62116;43.582;1.470;2023-02-24T15:57:09;3.20;;;1.23;;
65583;SDS011;62116;43.582;1.470;2023-02-24T15:59:38;1.85;;;1.10;;
65583;SDS011;62116;43.582;1.470;2023-02-24T16:02:09;1.90;;;1.00;;
65583;SDS011;62116;43.582;1.470;2023-02-24T16:04:45;2.92;;;1.20;;
65583;SDS011;62116;43.582;1.470;2023-02-24T16:07:15;2.78;;;1.50;;
65583;SDS011;62116;43.582;1.470;2023-02-24T16:09:44;2.33;;;1.27;;
65583;SDS011;62116;43.582;1.470;2023-02-24T16:12:14;1.35;;;1.08;;
65583;SDS011;62116;43.582;1.470;2023-02-24T16:14:42;1.63;;;1.00;;
65583;SDS011;62116;43.582;1.470;2023-02-24T16:17:20;1.75;;;1.00;;
65583;SDS011;62116;43.582;1.470;2023-02-24T16:19:53;2.67;;;1.10;;
65583;SDS011;62116;43.582;1.470;2023-02-24T16:22:21;3.85;;;1.17;;
65583;SDS011;62116;43.582;1.470;2023-02-24T16:24:47;1.83;;;0.93;;
65583;SDS011;62116;43.582;1.470;2023-02-24T16:27:16;2.38;;;1.23;;
65583;SDS011;62116;43.582;1.470;2023-02-24T16:29:43;2.17;;;1.10;;
65583;SDS011;62116;43.582;1.470;2023-02-24T16:32:09;4.05;;;1.02;;
65583;SDS011;62116;43.582;1.470;2023-02-24T16:34:36;1.35;;;1.00;;
65583;SDS011;62116;43.582;1.470;2023-02-24T16:37:01;2.95;;;1.30;;
65583;SDS011;62116;43.582;1.470;2023-02-24T16:39:27;3.17;;;1.30;;
65583;SDS011;62116;43.582;1.470;2023-02-24T16:41:53;2.58;;;1.02;;
65583;SDS011;62116;43.582;1.470;2023-02-24T16:44:19;2.47;;;1.10;;
65583;SDS011;62116;43.582;1.470;2023-02-24T16:46:44;2.10;;;1.20;;
65583;SDS011;62116;43.582;1.470;2023-02-24T16:49:12;2.10;;;1.15;;
65583;SDS011;62116;43.582;1.470;2023-02-24T16:51:42;2.25;;;1.20;;
65583;SDS011;62116;43.582;1.470;2023-02-24T16:54:08;1.92;;;1.25;;
65583;SDS011;62116;43.582;1.470;2023-02-24T16:56:33;3.08;;;1.10;;
65583;SDS011;62116;43.582;1.470;2023-02-24T16:58:59;2.65;;;1.38;;
65583;SDS011;62116;43.582;1.470;2023-02-24T17:01:24;3.65;;;1.25;;
65583;SDS011;62116;43.582;1.470;2023-02-24T17:03:51;2.17;;;1.20;;
65583;SDS011;62116;43.582;1.470;2023-02-24T17:06:17;2.05;;;1.30;;
65583;SDS011;62116;43.582;1.470;2023-02-24T17:08:43;2.00;;;1.30;;
65583;SDS011;62116;43.582;1.470;2023-02-24T17:11:13;2.78;;;1.30;;
65583;SDS011;62116;43.582;1.470;2023-02-24T17:13:41;2.60;;;1.60;;
65583;SDS011;62116;43.582;1.470;2023-02-24T17:16:08;2.92;;;1.63;;
65583;SDS011;62116;43.582;1.470;2023-02-24T17:18:34;4.25;;;1.55;;
65583;SDS011;62116;43.582;1.470;2023-02-24T17:21:00;2.80;;;1.40;;
65583;SDS011;62116;43.582;1.470;2023-02-24T17:23:26;3.30;;;1.40;;
65583;SDS011;62116;43.582;1.470;2023-02-24T17:25:52;2.15;;;1.40;;
65583;SDS011;62116;43.582;1.470;2023-02-24T17:28:19;2.00;;;1.40;;
65583;SDS011;62116;43.582;1.470;2023-02-24T17:30:45;3.20;;;1.70;;
65583;SDS011;62116;43.582;1.470;2023-02-24T17:33:10;2.10;;;1.40;;
65583;SDS011;62116;43.582;1.470;2023-02-24T17:35:38;2.30;;;1.60;;
65583;SDS011;62116;43.582;1.470;2023-02-24T17:38:08;3.78;;;1.70;;
65583;SDS011;62116;43.582;1.470;2023-02-24T17:40:36;3.25;;;1.50;;
65583;SDS011;62116;43.582;1.470;2023-02-24T17:43:02;3.92;;;1.45;;
65583;SDS011;62116;43.582;1.470;2023-02-24T17:45:27;3.35;;;1.50;;